Time;durP1;ratioP1;P1;durP2;ratioP2;P2;SDS_P1;SDS_P2;PMS_P1;PMS_P2;Temp;Humidity;BMP_temperature;BMP_pressure;BME280_temperature;BME280_humidity;BME280_pressure;Samples;Min_cycle;Max_cycle;Signal;HPM_P1;HPM_P2
2023/03/03 00:02:12;;;;;;;5.10;1.93;;;0.30;97.30;;;;;;5016625;28;20176;-82
2023/03/03 00:04:38;;;;;;;6.57;5.27;;;0.20;97.30;;;;;;5042516;28;20188;-82
2023/03/03 00:07:04;;;;;;;5.90;4.10;;;0.20;97.30;;;;;;5033494;28;20172;-84
2023/03/03 00:09:29;;;;;;;2.30;2.03;;;0.30;97.30;;;;;;5016346;28;20509;-80
2023/03/03 00:11:59;;;;;;;8.83;2.80;;;0.20;97.30;;;;;;5015300;28;20679;-81
2023/03/03 00:14:31;;;;;;;11.43;4.67;;;0.30;97.30;;;;;;5013999;28;20552;-81
2023/03/03 00:16:57;;;;;;;3.03;2.80;;;0.30;97.30;;;;;;5024667;28;20426;-83
2023/03/03 00:19:23;;;;;;;7.13;3.83;;;0.30;97.30;;;;;;5016460;28;20301;-82
2023/03/03 00:21:52;;;;;;;4.57;2.23;;;0.30;97.30;;;;;;5025397;28;20436;-79
2023/03/03 00:24:23;;;;;;;4.50;3.30;;;0.30;97.30;;;;;;5034389;28;20537;-81
2023/03/03 00:26:50;;;;;;;2.13;1.53;;;0.30;97.30;;;;;;5017404;28;20452;-78
2023/03/03 00:29:39;;;;;;;6.30;4.00;;;0.20;97.30;;;;;;5017375;28;20434;-78
2023/03/03 00:32:11;;;;;;;5.33;3.37;;;0.20;97.30;;;;;;5020190;28;20235;-80
2023/03/03 00:34:37;;;;;;;2.80;2.63;;;0.20;97.30;;;;;;5030099;28;20414;-84
2023/03/03 00:37:02;;;;;;;4.60;4.30;;;0.20;97.30;;;;;;5013288;28;20442;-82
2023/03/03 00:39:35;;;;;;;13.93;5.87;;;0.20;97.30;;;;;;5024238;28;20463;-80
2023/03/03 00:42:09;;;;;;;2.20;2.00;;;0.20;97.30;;;;;;5032310;28;20595;-81
2023/03/03 00:44:45;;;;;;;4.67;4.23;;;0.30;97.30;;;;;;5043573;28;20489;-80
2023/03/03 00:47:23;;;;;;;11.27;2.73;;;0.30;97.30;;;;;;5041135;28;20465;-81
2023/03/03 00:49:48;;;;;;;11.13;4.13;;;0.20;97.30;;;;;;5016238;28;20427;-81
2023/03/03 00:52:16;;;;;;;4.90;3.93;;;0.20;97.30;;;;;;5017270;28;20417;-81
2023/03/03 00:54:42;;;;;;;14.20;4.97;;;0.10;97.30;;;;;;5020101;28;20180;-80
2023/03/03 00:57:07;;;;;;;1.70;1.60;;;0.10;97.30;;;;;;5015531;28;20501;-80
2023/03/03 00:59:33;;;;;;;6.93;3.87;;;0.10;97.30;;;;;;5014532;28;20279;-81
2023/03/03 01:01:59;;;;;;;10.47;4.70;;;0.00;97.30;;;;;;5011584;28;20184;-82
2023/03/03 01:04:25;;;;;;;4.00;2.90;;;0.00;97.30;;;;;;5031708;28;20179;-79
2023/03/03 01:06:50;;;;;;;8.03;4.00;;;0.10;97.30;;;;;;5016644;28;20450;-80
2023/03/03 01:09:15;;;;;;;5.43;3.07;;;0.10;97.30;;;;;;5025586;28;20192;-80
2023/03/03 01:11:41;;;;;;;5.03;3.00;;;0.00;97.30;;;;;;5019613;28;20177;-82
2023/03/03 01:14:06;;;;;;;3.07;2.33;;;0.10;97.30;;;;;;5017120;28;20249;-78
2023/03/03 01:16:36;;;;;;;2.90;2.70;;;0.10;97.30;;;;;;5017424;28;20172;-80
2023/03/03 01:19:01;;;;;;;4.30;2.83;;;0.00;97.30;;;;;;5034084;28;20210;-80
2023/03/03 01:21:27;;;;;;;4.73;2.87;;;0.00;97.30;;;;;;5025634;28;20442;-81
2023/03/03 01:23:52;;;;;;;5.30;3.97;;;0.00;97.30;;;;;;5022897;28;20224;-80
2023/03/03 01:26:18;;;;;;;5.53;2.67;;;0.10;97.30;;;;;;5022076;28;20246;-81
2023/03/03 01:28:43;;;;;;;16.67;2.23;;;0.00;97.30;;;;;;5032556;28;20180;-81
2023/03/03 01:31:09;;;;;;;4.50;3.10;;;0.00;97.30;;;;;;5025193;28;20191;-81
2023/03/03 01:33:35;;;;;;;5.83;5.57;;;0.10;97.30;;;;;;5022938;28;20228;-80
2023/03/03 01:36:02;;;;;;;3.93;3.73;;;0.10;97.30;;;;;;5023070;28;20246;-82
2023/03/03 01:38:28;;;;;;;14.83;4.57;;;0.00;97.30;;;;;;5021024;28;20464;-79
2023/03/03 01:40:55;;;;;;;4.17;2.13;;;0.10;97.30;;;;;;5021407;28;20418;-84
2023/03/03 01:43:21;;;;;;;1.63;1.53;;;0.10;97.30;;;;;;5014593;28;20439;-84
2023/03/03 01:45:47;;;;;;;11.33;3.87;;;0.00;97.30;;;;;;5017626;28;20270;-84
2023/03/03 01:48:30;;;;;;;2.87;2.70;;;0.00;97.30;;;;;;5010665;28;20943;-83
2023/03/03 01:50:58;;;;;;;3.67;3.17;;;0.00;97.30;;;;;;5017994;28;20215;-84
2023/03/03 01:53:40;;;;;;;9.70;4.13;;;0.00;97.30;;;;;;5010407;28;20489;-84
2023/03/03 01:56:07;;;;;;;2.93;2.80;;;0.00;97.30;;;;;;5008584;28;20416;-84
2023/03/03 01:58:48;;;;;;;4.93;4.63;;;-0.10;97.30;;;;;;5014787;28;20248;-83
2023/03/03 02:01:19;;;;;;;4.07;3.83;;;-0.10;97.30;;;;;;5009504;28;20228;-83
2023/03/03 02:03:44;;;;;;;2.30;2.10;;;-0.10;97.30;;;;;;5009527;28;20489;-81
2023/03/03 02:06:17;;;;;;;2.00;1.90;;;-0.20;97.30;;;;;;5009794;28;20934;-86
2023/03/03 02:08:58;;;;;;;3.80;2.70;;;-0.20;97.30;;;;;;5026714;28;20557;-84
2023/03/03 02:11:25;;;;;;;8.83;3.77;;;-0.20;97.30;;;;;;5015242;28;20501;-82
2023/03/03 02:13:51;;;;;;;3.60;3.37;;;-0.20;97.30;;;;;;5011601;28;20421;-83
2023/03/03 02:16:16;;;;;;;4.60;2.83;;;-0.30;97.30;;;;;;5009218;28;20216;-81
2023/03/03 02:18:44;;;;;;;3.23;1.50;;;-0.20;97.30;;;;;;5014843;28;20694;-82
2023/03/03 02:21:19;;;;;;;2.63;2.17;;;-0.20;97.30;;;;;;5012491;28;20173;-82
2023/03/03 02:24:04;;;;;;;4.87;3.10;;;-0.20;97.30;;;;;;5005609;28;20829;-83
2023/03/03 02:26:35;;;;;;;2.83;2.60;;;-0.30;97.30;;;;;;5009005;28;20404;-84
2023/03/03 02:29:06;;;;;;;1.87;1.80;;;-0.30;97.30;;;;;;5008081;28;20405;-84
2023/03/03 02:31:32;;;;;;;3.73;2.57;;;-0.30;97.30;;;;;;5014534;28;21006;-80
2023/03/03 02:33:58;;;;;;;7.17;5.07;;;-0.30;97.30;;;;;;5009530;28;20478;-83
2023/03/03 02:36:27;;;;;;;7.87;2.57;;;-0.30;97.30;;;;;;5010722;28;20520;-84
2023/03/03 02:39:04;;;;;;;7.10;4.00;;;-0.30;97.30;;;;;;5005079;28;20471;-82
2023/03/03 02:41:39;;;;;;;9.17;3.70;;;-0.40;97.30;;;;;;5014472;28;21083;-83
2023/03/03 02:44:14;;;;;;;1.90;1.80;;;-0.40;97.30;;;;;;5014775;28;20434;-83
2023/03/03 02:46:42;;;;;;;2.90;2.70;;;-0.50;97.30;;;;;;5015210;28;20414;-82
2023/03/03 02:49:10;;;;;;;10.33;3.17;;;-0.60;97.30;;;;;;5013474;28;20419;-81
2023/03/03 02:51:36;;;;;;;2.23;2.03;;;-0.60;97.30;;;;;;5023182;28;20441;-85
2023/03/03 02:54:02;;;;;;;2.60;1.87;;;-0.60;97.30;;;;;;5016956;28;20443;-83
2023/03/03 02:56:28;;;;;;;3.63;3.43;;;-0.60;97.30;;;;;;5016327;28;20446;-84
2023/03/03 02:58:54;;;;;;;2.60;2.40;;;-0.60;97.30;;;;;;5005298;28;20474;-82
2023/03/03 03:01:20;;;;;;;5.00;3.00;;;-0.50;97.30;;;;;;5015607;28;20574;-81
2023/03/03 03:03:46;;;;;;;2.57;2.37;;;-0.50;97.30;;;;;;5015583;28;20914;-83
2023/03/03 03:06:11;;;;;;;1.77;1.23;;;-0.40;97.30;;;;;;5014621;28;20419;-83
2023/03/03 03:08:37;;;;;;;1.93;1.83;;;-0.40;97.30;;;;;;5014713;28;20197;-82
2023/03/03 03:11:04;;;;;;;1.83;1.73;;;-0.40;97.30;;;;;;5015719;28;20245;-83
2023/03/03 03:13:30;;;;;;;7.10;2.93;;;-0.30;97.30;;;;;;5010713;28;20215;-83
2023/03/03 03:15:56;;;;;;;5.47;3.20;;;-0.30;97.30;;;;;;5015211;28;20408;-83
2023/03/03 03:18:22;;;;;;;8.13;3.50;;;-0.30;97.30;;;;;;5005436;28;20448;-83
2023/03/03 03:20:48;;;;;;;6.67;4.40;;;-0.30;97.30;;;;;;5001300;28;20264;-83
2023/03/03 03:23:14;;;;;;;6.30;4.70;;;-0.30;97.30;;;;;;5007596;28;20507;-82
2023/03/03 03:25:44;;;;;;;3.10;2.90;;;-0.30;97.30;;;;;;5013963;28;20182;-83
2023/03/03 03:28:11;;;;;;;2.13;1.97;;;-0.30;97.30;;;;;;5006614;28;20421;-83
2023/03/03 03:30:37;;;;;;;9.60;2.30;;;-0.30;97.30;;;;;;5010341;28;20912;-80
2023/03/03 03:33:03;;;;;;;4.93;2.57;;;-0.30;97.30;;;;;;5014080;28;20528;-83
2023/03/03 03:35:28;;;;;;;3.13;2.80;;;-0.40;97.30;;;;;;5008636;28;20412;-83
2023/03/03 03:37:54;;;;;;;16.73;4.07;;;-0.40;97.30;;;;;;5008969;28;20418;-83
2023/03/03 03:40:19;;;;;;;3.20;3.00;;;-0.50;97.30;;;;;;4998188;28;20180;-83
2023/03/03 03:42:45;;;;;;;3.90;3.50;;;-0.50;97.30;;;;;;5002065;28;20201;-82
2023/03/03 03:45:14;;;;;;;3.47;2.87;;;-0.50;97.30;;;;;;5012117;28;20246;-83
2023/03/03 03:47:40;;;;;;;14.70;6.00;;;-0.50;97.30;;;;;;5010490;28;20250;-82
2023/03/03 03:50:06;;;;;;;3.10;2.90;;;-0.50;97.30;;;;;;5006736;28;21198;-83
2023/03/03 03:52:31;;;;;;;3.20;2.90;;;-0.60;97.30;;;;;;5001039;28;20460;-82
2023/03/03 03:54:57;;;;;;;3.43;2.93;;;-0.60;97.30;;;;;;5003966;28;20433;-83
2023/03/03 03:57:22;;;;;;;3.43;3.13;;;-0.60;97.30;;;;;;4995758;28;20166;-81
2023/03/03 03:59:49;;;;;;;2.77;2.57;;;-0.60;97.30;;;;;;4999711;28;20243;-84
2023/03/03 04:02:14;;;;;;;2.23;2.03;;;-0.60;97.30;;;;;;5004190;28;20564;-83
2023/03/03 04:04:40;;;;;;;6.23;3.80;;;-0.60;97.30;;;;;;4998754;28;20415;-84
2023/03/03 04:07:05;;;;;;;6.00;2.87;;;-0.60;97.30;;;;;;5007332;28;20211;-84
2023/03/03 04:09:31;;;;;;;2.70;2.50;;;-0.60;97.30;;;;;;5007918;28;20207;-83
2023/03/03 04:11:56;;;;;;;1.40;1.30;;;-0.60;97.30;;;;;;5009741;28;20166;-83
2023/03/03 04:14:22;;;;;;;3.90;3.13;;;-0.60;97.30;;;;;;5006990;28;20211;-83
2023/03/03 04:16:47;;;;;;;1.50;1.40;;;-0.70;97.30;;;;;;5002326;28;20275;-84
2023/03/03 04:19:13;;;;;;;20.13;3.67;;;-0.70;97.30;;;;;;5011282;28;20284;-83
2023/03/03 04:21:38;;;;;;;1.30;1.20;;;-0.70;97.30;;;;;;5006890;28;20532;-83
2023/03/03 04:24:04;;;;;;;3.57;1.90;;;-0.70;97.30;;;;;;5007660;28;20200;-81
2023/03/03 04:26:30;;;;;;;1.20;1.10;;;-0.70;97.30;;;;;;5007025;28;20181;-83
2023/03/03 04:28:56;;;;;;;4.70;2.63;;;-0.60;97.30;;;;;;4995990;28;20189;-84
2023/03/03 04:31:22;;;;;;;3.07;2.00;;;-0.60;97.30;;;;;;5005932;28;20446;-82
2023/03/03 04:33:47;;;;;;;5.67;2.47;;;-0.60;97.30;;;;;;4996945;28;20758;-83
2023/03/03 04:36:13;;;;;;;2.30;2.10;;;-0.60;97.30;;;;;;5011244;28;20506;-83
2023/03/03 04:38:39;;;;;;;2.50;1.93;;;-0.50;97.30;;;;;;5010574;28;20205;-83
2023/03/03 04:41:04;;;;;;;5.90;4.20;;;-0.50;97.30;;;;;;5001325;28;20592;-83
2023/03/03 04:43:30;;;;;;;4.80;4.50;;;-0.50;97.30;;;;;;5011345;28;20672;-84
2023/03/03 04:45:55;;;;;;;3.90;3.00;;;-0.50;97.30;;;;;;5002608;28;20181;-84
2023/03/03 04:48:21;;;;;;;2.13;1.97;;;-0.50;97.30;;;;;;5006028;28;20170;-83
2023/03/03 04:50:46;;;;;;;1.80;1.70;;;-0.50;97.30;;;;;;5004332;28;20716;-82
2023/03/03 04:53:12;;;;;;;2.07;1.93;;;-0.40;97.30;;;;;;5013544;28;20568;-84
2023/03/03 04:55:37;;;;;;;3.17;2.30;;;-0.40;97.30;;;;;;5009260;28;20180;-83
2023/03/03 04:58:04;;;;;;;10.87;2.30;;;-0.40;97.30;;;;;;5011478;28;20185;-83
2023/03/03 05:00:29;;;;;;;1.30;1.20;;;-0.40;97.30;;;;;;5008477;28;20175;-81
2023/03/03 05:02:55;;;;;;;4.47;4.20;;;-0.40;97.30;;;;;;5011570;28;20424;-83
2023/03/03 05:05:20;;;;;;;3.03;2.83;;;-0.40;97.30;;;;;;5012121;28;20172;-82
2023/03/03 05:07:46;;;;;;;3.73;3.53;;;-0.40;97.30;;;;;;5002583;28;20173;-81
2023/03/03 05:10:11;;;;;;;2.10;1.10;;;-0.40;97.30;;;;;;5008722;28;20710;-80
2023/03/03 05:12:37;;;;;;;11.90;3.27;;;-0.40;97.30;;;;;;5013611;28;20251;-83
2023/03/03 05:15:04;;;;;;;5.37;3.33;;;-0.50;97.30;;;;;;5003772;28;20597;-83
2023/03/03 05:17:30;;;;;;;1.87;1.77;;;-0.50;97.30;;;;;;5004673;28;20467;-81
2023/03/03 05:19:56;;;;;;;1.23;1.13;;;-0.50;97.30;;;;;;4999737;28;20444;-83
2023/03/03 05:22:22;;;;;;;2.97;2.67;;;-0.50;97.30;;;;;;5011084;28;20232;-83
2023/03/03 05:24:48;;;;;;;4.83;3.40;;;-0.60;97.30;;;;;;5013479;28;20172;-81
2023/03/03 05:27:14;;;;;;;3.90;2.03;;;-0.60;97.30;;;;;;5009791;28;20239;-84
2023/03/03 05:29:40;;;;;;;8.10;3.23;;;-0.60;97.30;;;;;;5010978;28;20431;-82
2023/03/03 05:32:05;;;;;;;4.87;2.30;;;-0.70;97.30;;;;;;5005312;28;20431;-84
2023/03/03 05:34:31;;;;;;;3.40;3.20;;;-0.70;97.30;;;;;;5018418;28;20187;-83
2023/03/03 05:36:57;;;;;;;8.27;4.17;;;-0.70;97.30;;;;;;5016356;28;20275;-83
2023/03/03 05:39:23;;;;;;;14.23;2.50;;;-0.70;97.30;;;;;;5014392;28;20286;-84
2023/03/03 05:41:48;;;;;;;8.97;2.33;;;-0.60;97.30;;;;;;5017356;28;20445;-83
2023/03/03 05:44:14;;;;;;;6.47;3.17;;;-0.60;97.30;;;;;;5013826;28;20601;-83
2023/03/03 05:46:39;;;;;;;2.60;2.40;;;-0.60;97.30;;;;;;5010200;28;20272;-82
2023/03/03 05:49:05;;;;;;;2.40;2.20;;;-0.60;97.30;;;;;;5006763;28;20222;-83
2023/03/03 05:51:30;;;;;;;26.20;4.03;;;-0.60;97.30;;;;;;5010822;28;20335;-84
2023/03/03 05:53:56;;;;;;;1.87;1.77;;;-0.60;97.30;;;;;;5034966;28;20203;-83
2023/03/03 05:56:21;;;;;;;6.93;2.53;;;-0.50;97.30;;;;;;5011012;28;20199;-83
2023/03/03 05:58:46;;;;;;;1.50;1.40;;;-0.50;97.30;;;;;;5025097;28;20267;-83
2023/03/03 06:01:15;;;;;;;1.50;1.40;;;-0.50;97.30;;;;;;5023808;28;20180;-83
2023/03/03 06:03:41;;;;;;;3.10;2.33;;;-0.50;97.30;;;;;;5012140;28;20617;-83
2023/03/03 06:06:08;;;;;;;4.30;3.73;;;-0.50;97.30;;;;;;5013789;28;20425;-83
2023/03/03 06:08:33;;;;;;;4.53;1.60;;;-0.40;97.30;;;;;;5010869;28;20172;-84
2023/03/03 06:10:59;;;;;;;5.63;3.93;;;-0.40;97.30;;;;;;5015158;28;20475;-82
2023/03/03 06:13:24;;;;;;;1.47;1.37;;;-0.40;97.30;;;;;;5010688;28;20190;-83
2023/03/03 06:15:50;;;;;;;6.13;2.80;;;-0.30;97.30;;;;;;5016070;28;20185;-83
2023/03/03 06:18:15;;;;;;;3.63;2.63;;;-0.30;97.30;;;;;;5015736;28;20187;-82
2023/03/03 06:20:41;;;;;;;2.67;2.50;;;-0.30;97.30;;;;;;5010853;28;20180;-82
2023/03/03 06:23:06;;;;;;;1.77;1.67;;;-0.30;97.30;;;;;;5016310;28;20564;-81
2023/03/03 06:25:34;;;;;;;1.90;1.83;;;-0.30;97.30;;;;;;5007379;28;20239;-80
2023/03/03 06:28:00;;;;;;;3.50;3.30;;;-0.30;97.30;;;;;;5005115;28;20161;-84
2023/03/03 06:30:27;;;;;;;1.87;1.77;;;-0.30;97.30;;;;;;5015032;28;20812;-84
2023/03/03 06:32:53;;;;;;;2.07;1.93;;;-0.30;97.30;;;;;;5008009;28;20265;-82
2023/03/03 06:35:18;;;;;;;2.37;2.17;;;-0.30;97.30;;;;;;5009380;28;20278;-82
2023/03/03 06:37:44;;;;;;;5.47;4.10;;;-0.20;97.30;;;;;;5013724;28;20419;-83
2023/03/03 06:40:10;;;;;;;9.67;2.53;;;-0.30;97.30;;;;;;5014318;28;20191;-84
2023/03/03 06:42:35;;;;;;;3.83;2.50;;;-0.30;97.30;;;;;;5007319;28;20230;-82
2023/03/03 06:45:01;;;;;;;5.23;3.47;;;-0.30;97.30;;;;;;5012865;28;20695;-83
2023/03/03 06:47:27;;;;;;;3.53;3.37;;;-0.30;97.30;;;;;;5010508;28;20179;-83
2023/03/03 06:49:52;;;;;;;2.80;2.40;;;-0.40;97.30;;;;;;5008342;28;20180;-82
2023/03/03 06:52:22;;;;;;;2.43;1.73;;;-0.40;97.30;;;;;;5026483;28;20260;-83
2023/03/03 06:54:48;;;;;;;1.50;1.40;;;-0.40;97.30;;;;;;5014914;28;20219;-83
2023/03/03 06:57:24;;;;;;;6.57;3.23;;;0.20;97.30;;;;;;5036417;28;20511;-83
2023/03/03 07:00:25;;;;;;;3.80;1.53;;;0.10;97.30;;;;;;5007645;28;20466;-80
2023/03/03 07:03:46;;;;;;;;;;;;;;;;;;;;;
2023/03/03 07:06:13;;;;;;;4.07;2.90;;;-0.20;97.30;;;;;;4962553;28;20398;-82
2023/03/03 07:08:41;;;;;;;4.77;3.30;;;-0.30;97.30;;;;;;5012707;28;20408;-79
2023/03/03 07:11:15;;;;;;;3.57;2.77;;;-0.40;97.30;;;;;;5018504;28;20397;-82
2023/03/03 07:13:45;;;;;;;1.70;1.60;;;-0.30;97.30;;;;;;5029092;28;20512;-80
2023/03/03 07:16:14;;;;;;;3.23;3.03;;;-0.30;97.30;;;;;;5017957;28;20317;-84
2023/03/03 07:19:00;;;;;;;10.70;5.03;;;-0.30;97.30;;;;;;5013599;28;20440;-82
2023/03/03 07:21:33;;;;;;;2.85;2.30;;;-0.20;97.30;;;;;;5013425;28;20342;-83
2023/03/03 07:24:00;;;;;;;3.13;2.93;;;-0.20;97.30;;;;;;5039066;28;20420;-83
2023/03/03 07:26:31;;;;;;;2.07;1.93;;;-0.20;97.30;;;;;;5039030;28;20206;-81
2023/03/03 07:29:21;;;;;;;5.07;2.57;;;-0.20;97.30;;;;;;5013733;28;20313;-83
2023/03/03 07:31:47;;;;;;;4.00;2.87;;;-0.10;97.30;;;;;;5031691;28;20487;-82
2023/03/03 07:34:26;;;;;;;2.43;2.23;;;-0.10;97.30;;;;;;5038968;28;20948;-82
2023/03/03 07:36:58;;;;;;;2.40;1.93;;;-0.20;97.30;;;;;;5027167;28;20248;-83
2023/03/03 07:39:34;;;;;;;3.33;3.13;;;-0.20;97.30;;;;;;5017444;28;20504;-84
2023/03/03 07:42:26;;;;;;;6.73;2.90;;;-0.20;97.30;;;;;;5030230;28;20270;-84
2023/03/03 07:44:54;;;;;;;7.30;5.17;;;-0.20;97.30;;;;;;5005742;28;20411;-82
2023/03/03 07:47:35;;;;;;;3.63;3.43;;;-0.30;97.30;;;;;;5016907;28;20239;-83
2023/03/03 07:50:21;;;;;;;2.30;2.10;;;-0.30;97.30;;;;;;5011753;28;20450;-83
2023/03/03 07:52:55;;;;;;;3.10;2.90;;;-0.20;97.30;;;;;;5012338;28;20434;-82
2023/03/03 07:55:34;;;;;;;2.00;1.87;;;-0.20;97.30;;;;;;5017852;28;20410;-81
2023/03/03 07:58:13;;;;;;;3.67;3.47;;;-0.20;97.30;;;;;;5029998;28;20788;-84
2023/03/03 08:00:38;;;;;;;4.40;2.30;;;-0.20;97.30;;;;;;5019794;28;20404;-82
2023/03/03 08:03:15;;;;;;;7.07;3.53;;;-0.20;97.30;;;;;;5017320;28;20216;-82
2023/03/03 08:05:42;;;;;;;6.43;2.50;;;-0.20;97.30;;;;;;5022630;28;20186;-81
2023/03/03 08:08:08;;;;;;;9.03;4.20;;;-0.10;97.30;;;;;;5037987;28;20402;-82
2023/03/03 08:10:54;;;;;;;3.33;2.30;;;-0.10;97.30;;;;;;5025011;28;20437;-80
2023/03/03 08:13:19;;;;;;;2.40;1.73;;;0.00;97.30;;;;;;5020061;28;20572;-82
2023/03/03 08:16:06;;;;;;;1.10;1.00;;;0.00;97.30;;;;;;5018528;28;20397;-84
2023/03/03 08:18:39;;;;;;;5.20;2.20;;;0.10;97.30;;;;;;5012194;28;20204;-83
2023/03/03 08:21:15;;;;;;;2.40;1.73;;;0.00;97.30;;;;;;5024128;28;20498;-84
2023/03/03 08:23:41;;;;;;;2.87;2.67;;;0.10;97.30;;;;;;5026019;28;20422;-82
2023/03/03 08:26:06;;;;;;;3.43;2.53;;;0.00;97.30;;;;;;5020741;28;20439;-83
2023/03/03 08:28:32;;;;;;;3.23;2.40;;;0.10;97.30;;;;;;5022999;28;20179;-84
2023/03/03 08:30:57;;;;;;;12.40;2.30;;;0.20;97.30;;;;;;5018634;28;20180;-83
2023/03/03 08:33:23;;;;;;;21.60;4.20;;;0.10;97.30;;;;;;5025842;28;20221;-84
2023/03/03 08:35:48;;;;;;;2.90;1.87;;;0.10;97.30;;;;;;5016277;28;20679;-81
2023/03/03 08:38:17;;;;;;;1.80;1.70;;;0.00;97.30;;;;;;5019397;28;20191;-84
2023/03/03 08:40:43;;;;;;;24.27;3.40;;;0.00;97.30;;;;;;5009539;28;20172;-84
2023/03/03 08:43:12;;;;;;;4.30;2.03;;;0.10;97.30;;;;;;5020309;28;20442;-82
2023/03/03 08:45:38;;;;;;;3.43;2.50;;;0.10;97.30;;;;;;5027235;28;20172;-82
2023/03/03 08:48:03;;;;;;;3.50;3.30;;;0.20;97.30;;;;;;5044380;28;20219;-80
2023/03/03 08:50:29;;;;;;;11.60;3.07;;;0.30;97.30;;;;;;5011286;28;20425;-82
2023/03/03 08:52:55;;;;;;;9.25;3.45;;;0.30;97.30;;;;;;5030857;28;20207;-82
2023/03/03 08:55:21;;;;;;;1.87;1.77;;;0.40;97.30;;;;;;5015714;28;20211;-83
2023/03/03 08:57:46;;;;;;;3.30;1.80;;;0.40;97.30;;;;;;5016324;28;20446;-84
2023/03/03 09:00:15;;;;;;;1.43;1.33;;;0.40;97.30;;;;;;5016909;28;20589;-83
2023/03/03 09:02:41;;;;;;;6.55;3.45;;;0.40;97.30;;;;;;5030564;28;20278;-82
2023/03/03 09:05:08;;;;;;;2.35;2.15;;;0.40;97.30;;;;;;5010103;28;20473;-83
2023/03/03 09:07:33;;;;;;;1.77;1.67;;;0.40;97.30;;;;;;5018995;28;20668;-83
2023/03/03 09:09:59;;;;;;;5.73;3.27;;;0.40;97.30;;;;;;5018385;28;20473;-84
2023/03/03 09:12:32;;;;;;;9.85;2.35;;;0.40;97.30;;;;;;5005306;28;20198;-83
2023/03/03 09:15:07;;;;;;;2.40;2.20;;;0.40;97.30;;;;;;5010933;28;20253;-82
2023/03/03 09:17:34;;;;;;;8.00;4.57;;;0.50;97.30;;;;;;5015837;28;20226;-83
2023/03/03 09:20:22;;;;;;;2.33;2.13;;;0.50;97.30;;;;;;5019461;28;20226;-83
2023/03/03 09:22:49;;;;;;;5.07;4.80;;;0.60;97.30;;;;;;5001653;28;20451;-84
2023/03/03 09:25:32;;;;;;;5.45;3.60;;;0.60;97.30;;;;;;5001898;28;20231;-83
2023/03/03 09:28:00;;;;;;;6.30;3.70;;;0.70;97.30;;;;;;5014330;28;20236;-83
2023/03/03 09:30:36;;;;;;;4.60;4.30;;;0.70;97.30;;;;;;5036233;28;20761;-83
2023/03/03 09:33:22;;;;;;;3.50;3.30;;;0.80;97.30;;;;;;5020920;28;20343;-85
2023/03/03 09:35:49;;;;;;;;;;;0.90;97.30;;;;;;5018926;28;20208;-82
2023/03/03 09:38:32;;;;;;;1.65;1.55;;;0.90;97.30;;;;;;5013568;28;20389;-82
2023/03/03 09:41:25;;;;;;;3.30;2.90;;;0.90;97.30;;;;;;5012696;28;20182;-82
2023/03/03 09:44:25;;;;;;;2.60;2.30;;;0.90;97.30;;;;;;5013328;28;20401;-83
2023/03/03 09:47:32;;;;;;;2.43;2.33;;;0.90;97.30;;;;;;5015175;28;20536;-82
2023/03/03 09:50:25;;;;;;;1.87;1.77;;;0.90;97.30;;;;;;5006951;28;20211;-83
2023/03/03 09:52:55;;;;;;;3.75;3.55;;;0.90;97.30;;;;;;5009231;28;20505;-83
2023/03/03 09:55:24;;;;;;;5.17;3.70;;;0.90;97.30;;;;;;5009462;28;20248;-84
2023/03/03 09:58:22;;;;;;;9.80;4.30;;;0.90;97.30;;;;;;5027143;28;20406;-83
2023/03/03 10:01:12;;;;;;;3.13;2.93;;;0.90;97.30;;;;;;5013014;28;20670;-84
2023/03/03 10:03:40;;;;;;;1.93;1.20;;;0.90;97.30;;;;;;5015857;28;20426;-83
2023/03/03 10:06:23;;;;;;;2.23;2.00;;;1.00;97.30;;;;;;5014677;28;20410;-82
2023/03/03 10:09:01;;;;;;;3.60;2.03;;;1.00;97.30;;;;;;5013846;28;20202;-83
2023/03/03 10:11:48;;;;;;;5.13;3.17;;;1.10;97.30;;;;;;5019153;28;20216;-84
2023/03/03 10:14:28;;;;;;;5.67;3.17;;;1.10;97.30;;;;;;5004391;28;20456;-83
2023/03/03 10:17:48;;;;;;;4.67;3.93;;;1.20;97.30;;;;;;5014231;28;20421;-83
2023/03/03 10:20:16;;;;;;;4.00;2.90;;;1.20;97.30;;;;;;4961149;28;20275;-82
2023/03/03 10:23:33;;;;;;;9.60;4.23;;;1.20;97.30;;;;;;5014769;28;20530;-83
2023/03/03 10:26:25;;;;;;;5.77;3.73;;;1.10;97.30;;;;;;4998700;28;20413;-85
2023/03/03 10:29:15;;;;;;;2.27;2.07;;;1.10;97.30;;;;;;5001884;28;20988;-82
2023/03/03 10:32:01;;;;;;;3.73;3.07;;;1.20;97.30;;;;;;5022678;28;20762;-84
2023/03/03 10:35:00;;;;;;;2.30;2.13;;;1.30;97.30;;;;;;5016768;28;20231;-83
2023/03/03 10:37:44;;;;;;;4.93;2.70;;;1.40;97.30;;;;;;5008127;28;20723;-81
2023/03/03 10:40:33;;;;;;;2.50;2.27;;;1.40;97.30;;;;;;5011750;28;20453;-82
2023/03/03 10:43:06;;;;;;;1.80;1.70;;;1.40;97.30;;;;;;5013573;28;20444;-82
2023/03/03 10:45:45;;;;;;;2.70;2.57;;;1.50;97.30;;;;;;5036160;28;20951;-82
2023/03/03 10:48:49;;;;;;;1.73;1.70;;;1.50;97.30;;;;;;5008282;28;20209;-83
2023/03/03 10:51:26;;;;;;;19.67;2.83;;;1.50;97.30;;;;;;5007940;28;20515;-84
2023/03/03 10:54:02;;;;;;;4.33;2.93;;;1.50;97.30;;;;;;5016983;28;20451;-83
2023/03/03 10:56:55;;;;;;;3.80;1.70;;;1.50;97.30;;;;;;5014869;28;20443;-83
2023/03/03 10:59:54;;;;;;;8.37;3.07;;;1.50;97.30;;;;;;5009323;28;20451;-83
2023/03/03 11:02:31;;;;;;;2.70;2.50;;;1.50;97.30;;;;;;5008741;28;20231;-79
2023/03/03 11:05:51;;;;;;;2.70;2.50;;;1.50;97.30;;;;;;5015534;28;20212;-82
2023/03/03 11:08:28;;;;;;;4.30;3.20;;;1.50;97.30;;;;;;4980757;28;20714;-81
2023/03/03 11:11:08;;;;;;;6.73;5.23;;;1.50;97.30;;;;;;5015540;28;20801;-82
2023/03/03 11:13:57;;;;;;;3.77;3.57;;;1.50;97.30;;;;;;5009307;28;20445;-82
2023/03/03 11:16:48;;;;;;;3.73;2.50;;;1.50;97.30;;;;;;5008900;28;20490;-83
2023/03/03 11:19:34;;;;;;;1.57;1.47;;;1.50;97.30;;;;;;5016834;28;20217;-81
2023/03/03 11:22:22;;;;;;;4.53;1.93;;;1.60;97.30;;;;;;5008503;28;20540;-85
2023/03/03 11:25:22;;;;;;;2.50;2.30;;;1.70;97.30;;;;;;5015434;28;20937;-83
2023/03/03 11:28:03;;;;;;;2.67;2.47;;;1.70;97.30;;;;;;4990160;28;20699;-84
2023/03/03 11:30:46;;;;;;;5.23;4.93;;;1.70;97.30;;;;;;5018935;28;20424;-83
2023/03/03 11:33:21;;;;;;;3.37;2.20;;;1.80;97.30;;;;;;5037590;28;20519;-83
2023/03/03 11:36:10;;;;;;;10.93;6.03;;;1.80;97.30;;;;;;5009552;28;20225;-82
2023/03/03 11:38:56;;;;;;;1.63;1.50;;;1.80;97.30;;;;;;5012608;28;20540;-82
2023/03/03 11:41:29;;;;;;;3.20;3.00;;;1.80;97.30;;;;;;5016350;28;20430;-83
2023/03/03 11:44:22;;;;;;;5.33;2.97;;;1.80;97.30;;;;;;5031880;28;20438;-82
2023/03/03 11:47:17;;;;;;;4.83;4.13;;;1.90;97.30;;;;;;5008278;28;20492;-82
2023/03/03 11:49:57;;;;;;;8.40;4.00;;;1.90;97.30;;;;;;5016760;28;20850;-82
2023/03/03 11:52:38;;;;;;;2.97;1.93;;;1.90;97.30;;;;;;5008200;28;20723;-82
2023/03/03 11:55:19;;;;;;;2.47;2.17;;;1.90;97.30;;;;;;5013079;28;20724;-82
2023/03/03 11:58:16;;;;;;;6.37;3.43;;;1.90;97.30;;;;;;5026802;28;20230;-82
2023/03/03 12:01:19;;;;;;;3.53;3.33;;;1.90;97.30;;;;;;5005073;28;20419;-84
2023/03/03 12:03:57;;;;;;;9.50;4.35;;;1.90;97.30;;;;;;5014164;28;20439;-82
2023/03/03 12:06:48;;;;;;;2.70;2.20;;;2.00;97.30;;;;;;5017017;28;20851;-81
2023/03/03 12:09:55;;;;;;;2.80;1.97;;;2.00;97.30;;;;;;5009781;28;20416;-85
2023/03/03 12:12:26;;;;;;;5.50;2.73;;;2.10;97.30;;;;;;5009211;28;20429;-82
2023/03/03 12:15:14;;;;;;;4.97;4.67;;;2.10;97.30;;;;;;5025491;28;20470;-79
2023/03/03 12:17:58;;;;;;;23.63;3.30;;;2.20;97.30;;;;;;5018978;28;21058;-83
2023/03/03 12:20:42;;;;;;;4.33;3.13;;;2.20;97.30;;;;;;5010897;28;20967;-82
2023/03/03 12:23:41;;;;;;;6.17;2.77;;;2.20;97.30;;;;;;5011632;28;20457;-84
2023/03/03 12:26:24;;;;;;;2.60;2.40;;;2.10;97.30;;;;;;5007274;28;20263;-82
2023/03/03 12:28:55;;;;;;;1.93;1.83;;;2.20;97.30;;;;;;5020957;28;20426;-82
2023/03/03 12:31:52;;;;;;;1.23;1.13;;;2.20;97.30;;;;;;5009679;28;20424;-83
2023/03/03 12:34:33;;;;;;;1.83;1.73;;;2.20;97.30;;;;;;5008530;28;20280;-82
2023/03/03 12:37:19;;;;;;;3.33;2.27;;;2.20;97.30;;;;;;5029367;28;20252;-84
2023/03/03 12:39:55;;;;;;;2.60;2.00;;;2.20;97.30;;;;;;5022155;28;20458;-80
2023/03/03 12:43:04;;;;;;;4.40;3.73;;;2.30;97.30;;;;;;5029262;28;20277;-79
2023/03/03 12:45:48;;;;;;;3.10;2.70;;;2.30;97.30;;;;;;4988738;28;20432;-83
2023/03/03 12:48:25;;;;;;;6.40;4.17;;;2.40;97.30;;;;;;5008726;28;20426;-82
2023/03/03 12:50:59;;;;;;;11.40;3.20;;;2.40;97.30;;;;;;5008644;28;20526;-83
2023/03/03 12:53:38;;;;;;;4.80;3.80;;;2.40;97.30;;;;;;5010259;28;20232;-83
2023/03/03 12:56:11;;;;;;;3.00;2.80;;;2.50;97.30;;;;;;5026352;28;20430;-82
2023/03/03 12:58:55;;;;;;;4.93;2.90;;;2.50;97.30;;;;;;5035196;28;20247;-83
2023/03/03 13:02:16;;;;;;;9.07;3.27;;;2.60;97.30;;;;;;5018075;28;20415;-83
2023/03/03 13:05:25;;;;;;;2.27;2.07;;;2.50;97.30;;;;;;5032338;28;20486;-83
2023/03/03 13:08:30;;;;;;;4.00;3.47;;;2.50;97.30;;;;;;5008881;28;20431;-82
2023/03/03 13:11:28;;;;;;;3.63;3.43;;;2.50;97.30;;;;;;5009325;28;20250;-82
2023/03/03 13:14:11;;;;;;;4.17;2.30;;;2.50;97.30;;;;;;5033033;28;20427;-84
2023/03/03 13:17:04;;;;;;;6.80;4.40;;;2.50;97.30;;;;;;5014141;28;20422;-84
2023/03/03 13:19:55;;;;;;;6.50;3.13;;;2.50;97.30;;;;;;5008139;28;20447;-83
2023/03/03 13:22:30;;;;;;;3.07;2.90;;;2.60;97.30;;;;;;5016237;28;20247;-83
2023/03/03 13:25:32;;;;;;;8.83;4.90;;;2.60;97.30;;;;;;5022056;28;20461;-84
2023/03/03 13:28:05;;;;;;;6.83;3.73;;;2.60;97.30;;;;;;5022668;28;20484;-81